sensor_id;sensor_type;location;lat;lon;timestamp;P1;durP1;ratioP1;P2;durP2;ratioP2
55134;SDS011;41031;44.750;11.308;2022-11-15T00:01:42;69.53;;;41.20;;
55134;SDS011;41031;44.750;11.308;2022-11-15T00:04:27;74.77;;;43.07;;
55134;SDS011;41031;44.750;11.308;2022-11-15T00:07:13;71.73;;;41.37;;
55134;SDS011;41031;44.750;11.308;2022-11-15T00:10:19;76.23;;;43.87;;
55134;SDS011;41031;44.750;11.308;2022-11-15T00:13:13;75.07;;;44.30;;
55134;SDS011;41031;44.750;11.308;2022-11-15T00:16:00;75.10;;;43.43;;
55134;SDS011;41031;44.750;11.308;2022-11-15T00:18:45;78.77;;;44.50;;
55134;SDS011;41031;44.750;11.308;2022-11-15T00:21:35;79.63;;;42.93;;
55134;SDS011;41031;44.750;11.308;2022-11-15T00:24:20;74.00;;;41.93;;
55134;SDS011;41031;44.750;11.308;2022-11-15T00:27:06;77.17;;;42.97;;
55134;SDS011;41031;44.750;11.308;2022-11-15T00:29:52;73.10;;;41.13;;
55134;SDS011;41031;44.750;11.308;2022-11-15T00:32:38;73.87;;;41.10;;
55134;SDS011;41031;44.750;11.308;2022-11-15T00:35:23;68.07;;;39.77;;
55134;SDS011;41031;44.750;11.308;2022-11-15T00:38:08;72.23;;;39.77;;
55134;SDS011;41031;44.750;11.308;2022-11-15T00:40:54;66.57;;;40.93;;
55134;SDS011;41031;44.750;11.308;2022-11-15T00:43:40;73.60;;;38.90;;
55134;SDS011;41031;44.750;11.308;2022-11-15T00:46:28;65.07;;;38.90;;
55134;SDS011;41031;44.750;11.308;2022-11-15T00:49:14;64.13;;;38.03;;
55134;SDS011;41031;44.750;11.308;2022-11-15T00:51:59;65.83;;;37.90;;
55134;SDS011;41031;44.750;11.308;2022-11-15T00:54:45;67.73;;;39.40;;
55134;SDS011;41031;44.750;11.308;2022-11-15T00:57:31;65.03;;;39.40;;
55134;SDS011;41031;44.750;11.308;2022-11-15T01:00:16;62.63;;;35.40;;
55134;SDS011;41031;44.750;11.308;2022-11-15T01:03:02;62.43;;;37.83;;
55134;SDS011;41031;44.750;11.308;2022-11-15T01:05:47;63.80;;;35.90;;
55134;SDS011;41031;44.750;11.308;2022-11-15T01:08:33;61.97;;;36.03;;
55134;SDS011;41031;44.750;11.308;2022-11-15T01:11:19;65.00;;;36.40;;
55134;SDS011;41031;44.750;11.308;2022-11-15T01:14:04;66.17;;;37.53;;
55134;SDS011;41031;44.750;11.308;2022-11-15T01:16:50;58.73;;;35.27;;
55134;SDS011;41031;44.750;11.308;2022-11-15T01:19:35;64.83;;;37.77;;
55134;SDS011;41031;44.750;11.308;2022-11-15T01:22:22;63.00;;;36.30;;
55134;SDS011;41031;44.750;11.308;2022-11-15T01:25:07;62.23;;;35.60;;
55134;SDS011;41031;44.750;11.308;2022-11-15T01:27:53;62.53;;;36.30;;
55134;SDS011;41031;44.750;11.308;2022-11-15T01:30:38;60.00;;;36.27;;
55134;SDS011;41031;44.750;11.308;2022-11-15T01:33:24;57.57;;;36.40;;
55134;SDS011;41031;44.750;11.308;2022-11-15T01:36:15;63.37;;;35.03;;
55134;SDS011;41031;44.750;11.308;2022-11-15T01:39:02;64.07;;;34.43;;
55134;SDS011;41031;44.750;11.308;2022-11-15T01:41:48;55.70;;;32.97;;
55134;SDS011;41031;44.750;11.308;2022-11-15T01:47:24;65.87;;;35.27;;
55134;SDS011;41031;44.750;11.308;2022-11-15T01:50:14;60.40;;;33.93;;
55134;SDS011;41031;44.750;11.308;2022-11-15T01:53:03;56.77;;;33.03;;
55134;SDS011;41031;44.750;11.308;2022-11-15T01:55:49;54.67;;;32.43;;
55134;SDS011;41031;44.750;11.308;2022-11-15T01:58:34;57.60;;;33.37;;
55134;SDS011;41031;44.750;11.308;2022-11-15T02:01:21;56.83;;;33.93;;
55134;SDS011;41031;44.750;11.308;2022-11-15T02:04:26;56.53;;;33.10;;
55134;SDS011;41031;44.750;11.308;2022-11-15T02:07:17;61.67;;;33.20;;
55134;SDS011;41031;44.750;11.308;2022-11-15T02:10:09;61.03;;;33.17;;
55134;SDS011;41031;44.750;11.308;2022-11-15T02:12:57;54.47;;;33.50;;
55134;SDS011;41031;44.750;11.308;2022-11-15T02:16:11;62.77;;;34.13;;
55134;SDS011;41031;44.750;11.308;2022-11-15T02:37:39;48.13;;;29.50;;
55134;SDS011;41031;44.750;11.308;2022-11-15T02:49:57;47.30;;;27.77;;
55134;SDS011;41031;44.750;11.308;2022-11-15T02:52:47;45.77;;;28.03;;
55134;SDS011;41031;44.750;11.308;2022-11-15T02:55:35;43.77;;;26.73;;
55134;SDS011;41031;44.750;11.308;2022-11-15T02:58:47;48.37;;;29.43;;
55134;SDS011;41031;44.750;11.308;2022-11-15T03:04:58;43.50;;;26.10;;
55134;SDS011;41031;44.750;11.308;2022-11-15T03:11:17;43.07;;;26.87;;
55134;SDS011;41031;44.750;11.308;2022-11-15T03:14:14;43.47;;;26.73;;
55134;SDS011;41031;44.750;11.308;2022-11-15T03:17:27;46.67;;;27.13;;
55134;SDS011;41031;44.750;11.308;2022-11-15T03:20:17;47.90;;;27.10;;
55134;SDS011;41031;44.750;11.308;2022-11-15T03:23:05;42.70;;;26.77;;
55134;SDS011;41031;44.750;11.308;2022-11-15T03:25:53;41.97;;;25.37;;
55134;SDS011;41031;44.750;11.308;2022-11-15T03:31:29;45.17;;;27.23;;
55134;SDS011;41031;44.750;11.308;2022-11-15T03:34:39;42.70;;;25.43;;
55134;SDS011;41031;44.750;11.308;2022-11-15T03:43:53;44.70;;;26.43;;
55134;SDS011;41031;44.750;11.308;2022-11-15T03:47:06;47.53;;;25.63;;
55134;SDS011;41031;44.750;11.308;2022-11-15T03:50:22;42.40;;;24.73;;
55134;SDS011;41031;44.750;11.308;2022-11-15T03:53:07;45.20;;;26.23;;
55134;SDS011;41031;44.750;11.308;2022-11-15T03:55:53;41.57;;;25.30;;
55134;SDS011;41031;44.750;11.308;2022-11-15T03:58:39;39.77;;;25.67;;
55134;SDS011;41031;44.750;11.308;2022-11-15T04:01:25;38.07;;;24.30;;
55134;SDS011;41031;44.750;11.308;2022-11-15T04:04:11;40.57;;;26.00;;
55134;SDS011;41031;44.750;11.308;2022-11-15T04:06:56;40.73;;;25.87;;
55134;SDS011;41031;44.750;11.308;2022-11-15T04:09:42;45.00;;;26.37;;
55134;SDS011;41031;44.750;11.308;2022-11-15T04:12:46;41.67;;;25.30;;
55134;SDS011;41031;44.750;11.308;2022-11-15T04:15:32;38.17;;;24.03;;
55134;SDS011;41031;44.750;11.308;2022-11-15T04:18:18;46.27;;;25.73;;
55134;SDS011;41031;44.750;11.308;2022-11-15T04:21:04;41.00;;;24.30;;
55134;SDS011;41031;44.750;11.308;2022-11-15T04:24:08;45.83;;;25.53;;
55134;SDS011;41031;44.750;11.308;2022-11-15T04:26:59;41.27;;;25.57;;
55134;SDS011;41031;44.750;11.308;2022-11-15T04:29:44;42.33;;;25.77;;
55134;SDS011;41031;44.750;11.308;2022-11-15T04:32:30;41.83;;;25.47;;
55134;SDS011;41031;44.750;11.308;2022-11-15T04:35:16;46.50;;;26.43;;
55134;SDS011;41031;44.750;11.308;2022-11-15T04:38:02;43.20;;;23.27;;
55134;SDS011;41031;44.750;11.308;2022-11-15T04:40:49;39.53;;;24.60;;
55134;SDS011;41031;44.750;11.308;2022-11-15T04:43:35;42.07;;;23.97;;
55134;SDS011;41031;44.750;11.308;2022-11-15T04:46:21;40.53;;;23.50;;
55134;SDS011;41031;44.750;11.308;2022-11-15T04:49:08;43.60;;;23.37;;
55134;SDS011;41031;44.750;11.308;2022-11-15T04:51:53;38.93;;;23.20;;
55134;SDS011;41031;44.750;11.308;2022-11-15T04:54:39;37.57;;;22.47;;
55134;SDS011;41031;44.750;11.308;2022-11-15T04:57:27;37.80;;;23.60;;
55134;SDS011;41031;44.750;11.308;2022-11-15T05:00:13;40.77;;;24.10;;
55134;SDS011;41031;44.750;11.308;2022-11-15T05:03:00;39.63;;;23.97;;
55134;SDS011;41031;44.750;11.308;2022-11-15T05:06:04;43.57;;;25.97;;
55134;SDS011;41031;44.750;11.308;2022-11-15T05:08:50;43.00;;;24.90;;
55134;SDS011;41031;44.750;11.308;2022-11-15T05:11:35;41.37;;;25.70;;
55134;SDS011;41031;44.750;11.308;2022-11-15T05:14:21;46.07;;;25.80;;
55134;SDS011;41031;44.750;11.308;2022-11-15T05:17:06;36.87;;;22.90;;
55134;SDS011;41031;44.750;11.308;2022-11-15T05:19:52;32.50;;;20.47;;
55134;SDS011;41031;44.750;11.308;2022-11-15T05:22:37;30.10;;;20.47;;
55134;SDS011;41031;44.750;11.308;2022-11-15T05:25:23;29.20;;;19.63;;
55134;SDS011;41031;44.750;11.308;2022-11-15T05:28:09;30.27;;;19.97;;
55134;SDS011;41031;44.750;11.308;2022-11-15T05:31:00;33.13;;;18.70;;
55134;SDS011;41031;44.750;11.308;2022-11-15T05:33:50;32.73;;;20.47;;
55134;SDS011;41031;44.750;11.308;2022-11-15T05:36:37;29.93;;;19.20;;
55134;SDS011;41031;44.750;11.308;2022-11-15T05:39:26;28.73;;;19.40;;
55134;SDS011;41031;44.750;11.308;2022-11-15T05:42:15;32.70;;;19.20;;
55134;SDS011;41031;44.750;11.308;2022-11-15T05:45:02;32.07;;;20.60;;
55134;SDS011;41031;44.750;11.308;2022-11-15T05:47:50;27.17;;;20.07;;
55134;SDS011;41031;44.750;11.308;2022-11-15T05:50:39;30.97;;;20.70;;
55134;SDS011;41031;44.750;11.308;2022-11-15T05:53:27;33.23;;;20.60;;
55134;SDS011;41031;44.750;11.308;2022-11-15T05:56:15;34.23;;;21.33;;
55134;SDS011;41031;44.750;11.308;2022-11-15T05:59:00;30.23;;;19.83;;
55134;SDS011;41031;44.750;11.308;2022-11-15T06:01:46;32.93;;;20.67;;
55134;SDS011;41031;44.750;11.308;2022-11-15T06:04:32;36.07;;;22.13;;
55134;SDS011;41031;44.750;11.308;2022-11-15T06:07:18;35.47;;;22.37;;
55134;SDS011;41031;44.750;11.308;2022-11-15T06:10:03;34.03;;;22.47;;
55134;SDS011;41031;44.750;11.308;2022-11-15T06:12:59;35.93;;;21.73;;
55134;SDS011;41031;44.750;11.308;2022-11-15T06:15:46;37.70;;;23.07;;
55134;SDS011;41031;44.750;11.308;2022-11-15T06:18:32;38.90;;;22.20;;
55134;SDS011;41031;44.750;11.308;2022-11-15T06:21:18;40.37;;;23.10;;
55134;SDS011;41031;44.750;11.308;2022-11-15T06:24:04;37.57;;;22.20;;
55134;SDS011;41031;44.750;11.308;2022-11-15T06:26:52;39.47;;;24.83;;
55134;SDS011;41031;44.750;11.308;2022-11-15T06:29:37;38.37;;;23.60;;
55134;SDS011;41031;44.750;11.308;2022-11-15T06:32:23;40.33;;;24.83;;
55134;SDS011;41031;44.750;11.308;2022-11-15T06:35:08;38.40;;;24.70;;
55134;SDS011;41031;44.750;11.308;2022-11-15T06:37:54;40.30;;;25.13;;
55134;SDS011;41031;44.750;11.308;2022-11-15T06:40:40;36.77;;;23.73;;
55134;SDS011;41031;44.750;11.308;2022-11-15T06:43:26;37.23;;;23.67;;
55134;SDS011;41031;44.750;11.308;2022-11-15T06:46:11;41.00;;;23.97;;
55134;SDS011;41031;44.750;11.308;2022-11-15T06:48:57;41.10;;;24.43;;
55134;SDS011;41031;44.750;11.308;2022-11-15T06:51:42;37.83;;;23.73;;
55134;SDS011;41031;44.750;11.308;2022-11-15T06:54:28;40.43;;;24.47;;
55134;SDS011;41031;44.750;11.308;2022-11-15T06:57:13;41.33;;;25.37;;
55134;SDS011;41031;44.750;11.308;2022-11-15T06:59:58;39.90;;;24.80;;
55134;SDS011;41031;44.750;11.308;2022-11-15T07:02:44;37.90;;;24.03;;
55134;SDS011;41031;44.750;11.308;2022-11-15T07:05:30;35.43;;;22.23;;
55134;SDS011;41031;44.750;11.308;2022-11-15T07:08:16;39.60;;;23.50;;
55134;SDS011;41031;44.750;11.308;2022-11-15T07:11:02;37.33;;;24.67;;
55134;SDS011;41031;44.750;11.308;2022-11-15T07:13:49;40.37;;;24.47;;
55134;SDS011;41031;44.750;11.308;2022-11-15T07:16:35;39.90;;;23.87;;
55134;SDS011;41031;44.750;11.308;2022-11-15T07:19:21;41.33;;;24.90;;
55134;SDS011;41031;44.750;11.308;2022-11-15T07:22:07;36.10;;;21.90;;
55134;SDS011;41031;44.750;11.308;2022-11-15T07:24:52;31.53;;;21.73;;
55134;SDS011;41031;44.750;11.308;2022-11-15T07:27:38;38.13;;;23.30;;
55134;SDS011;41031;44.750;11.308;2022-11-15T07:30:24;38.00;;;23.20;;
55134;SDS011;41031;44.750;11.308;2022-11-15T07:33:11;40.30;;;23.73;;
55134;SDS011;41031;44.750;11.308;2022-11-15T07:36:00;42.07;;;23.53;;
55134;SDS011;41031;44.750;11.308;2022-11-15T07:38:46;39.17;;;24.10;;
55134;SDS011;41031;44.750;11.308;2022-11-15T07:41:32;43.40;;;24.47;;
55134;SDS011;41031;44.750;11.308;2022-11-15T07:44:17;40.20;;;24.37;;
55134;SDS011;41031;44.750;11.308;2022-11-15T07:47:03;38.83;;;23.80;;
55134;SDS011;41031;44.750;11.308;2022-11-15T07:49:48;37.43;;;23.87;;
55134;SDS011;41031;44.750;11.308;2022-11-15T07:52:34;39.40;;;22.07;;
55134;SDS011;41031;44.750;11.308;2022-11-15T07:55:19;38.53;;;22.63;;
55134;SDS011;41031;44.750;11.308;2022-11-15T07:58:09;35.30;;;22.97;;
55134;SDS011;41031;44.750;11.308;2022-11-15T08:00:56;37.37;;;22.33;;
55134;SDS011;41031;44.750;11.308;2022-11-15T08:03:41;38.00;;;23.50;;
55134;SDS011;41031;44.750;11.308;2022-11-15T08:06:27;38.10;;;24.37;;
55134;SDS011;41031;44.750;11.308;2022-11-15T08:09:13;41.73;;;24.73;;
55134;SDS011;41031;44.750;11.308;2022-11-15T08:11:58;41.27;;;25.27;;
55134;SDS011;41031;44.750;11.308;2022-11-15T08:14:44;38.77;;;24.67;;
55134;SDS011;41031;44.750;11.308;2022-11-15T08:17:29;37.80;;;23.87;;
55134;SDS011;41031;44.750;11.308;2022-11-15T08:20:17;47.17;;;24.20;;
55134;SDS011;41031;44.750;11.308;2022-11-15T08:23:04;37.37;;;22.57;;
55134;SDS011;41031;44.750;11.308;2022-11-15T08:25:50;38.13;;;24.03;;
55134;SDS011;41031;44.750;11.308;2022-11-15T08:28:36;38.27;;;23.83;;
55134;SDS011;41031;44.750;11.308;2022-11-15T08:31:21;34.53;;;23.13;;
55134;SDS011;41031;44.750;11.308;2022-11-15T08:34:07;39.17;;;23.93;;
55134;SDS011;41031;44.750;11.308;2022-11-15T08:36:52;38.87;;;23.43;;
55134;SDS011;41031;44.750;11.308;2022-11-15T08:39:38;34.57;;;22.00;;
55134;SDS011;41031;44.750;11.308;2022-11-15T08:42:23;35.40;;;23.13;;
55134;SDS011;41031;44.750;11.308;2022-11-15T08:45:09;37.33;;;22.90;;
55134;SDS011;41031;44.750;11.308;2022-11-15T08:47:55;40.90;;;24.80;;
55134;SDS011;41031;44.750;11.308;2022-11-15T08:50:40;38.57;;;23.43;;
55134;SDS011;41031;44.750;11.308;2022-11-15T08:53:28;34.10;;;22.70;;
55134;SDS011;41031;44.750;11.308;2022-11-15T08:56:14;36.47;;;23.30;;
55134;SDS011;41031;44.750;11.308;2022-11-15T08:59:00;41.57;;;24.87;;
55134;SDS011;41031;44.750;11.308;2022-11-15T09:01:45;36.93;;;22.77;;
55134;SDS011;41031;44.750;11.308;2022-11-15T09:04:31;36.20;;;24.80;;
55134;SDS011;41031;44.750;11.308;2022-11-15T09:07:17;37.13;;;23.93;;
55134;SDS011;41031;44.750;11.308;2022-11-15T09:10:03;40.80;;;24.40;;
55134;SDS011;41031;44.750;11.308;2022-11-15T09:12:49;34.20;;;22.70;;
55134;SDS011;41031;44.750;11.308;2022-11-15T09:15:35;36.37;;;24.03;;
55134;SDS011;41031;44.750;11.308;2022-11-15T09:18:20;37.20;;;25.50;;
55134;SDS011;41031;44.750;11.308;2022-11-15T09:21:07;41.60;;;26.57;;
55134;SDS011;41031;44.750;11.308;2022-11-15T09:23:53;42.83;;;25.43;;
55134;SDS011;41031;44.750;11.308;2022-11-15T09:26:39;45.10;;;26.87;;
55134;SDS011;41031;44.750;11.308;2022-11-15T09:29:25;45.43;;;26.50;;
55134;SDS011;41031;44.750;11.308;2022-11-15T09:32:10;44.50;;;26.50;;
55134;SDS011;41031;44.750;11.308;2022-11-15T09:34:57;45.03;;;26.73;;
55134;SDS011;41031;44.750;11.308;2022-11-15T09:37:43;42.67;;;27.80;;
55134;SDS011;41031;44.750;11.308;2022-11-15T09:40:29;45.03;;;27.13;;
55134;SDS011;41031;44.750;11.308;2022-11-15T09:49:09;45.70;;;27.47;;
55134;SDS011;41031;44.750;11.308;2022-11-15T09:52:02;45.07;;;28.07;;
55134;SDS011;41031;44.750;11.308;2022-11-15T09:54:37;43.77;;;27.43;;
55134;SDS011;41031;44.750;11.308;2022-11-15T09:57:32;41.20;;;27.47;;
55134;SDS011;41031;44.750;11.308;2022-11-15T10:00:26;47.57;;;29.03;;
55134;SDS011;41031;44.750;11.308;2022-11-15T10:03:16;47.80;;;27.23;;
55134;SDS011;41031;44.750;11.308;2022-11-15T10:05:56;47.20;;;30.33;;
55134;SDS011;41031;44.750;11.308;2022-11-15T10:11:03;45.10;;;30.07;;
55134;SDS011;41031;44.750;11.308;2022-11-15T10:14:02;46.40;;;30.57;;
55134;SDS011;41031;44.750;11.308;2022-11-15T10:16:53;47.00;;;29.27;;
55134;SDS011;41031;44.750;11.308;2022-11-15T10:24:34;44.77;;;28.43;;
55134;SDS011;41031;44.750;11.308;2022-11-15T10:27:13;46.83;;;28.60;;
55134;SDS011;41031;44.750;11.308;2022-11-15T10:29:46;47.77;;;29.00;;
55134;SDS011;41031;44.750;11.308;2022-11-15T10:32:17;44.77;;;28.13;;
55134;SDS011;41031;44.750;11.308;2022-11-15T10:34:46;47.73;;;28.67;;
55134;SDS011;41031;44.750;11.308;2022-11-15T10:37:14;46.13;;;29.70;;
55134;SDS011;41031;44.750;11.308;2022-11-15T10:43:03;47.47;;;30.97;;
55134;SDS011;41031;44.750;11.308;2022-11-15T10:45:37;51.13;;;31.13;;
55134;SDS011;41031;44.750;11.308;2022-11-15T10:50:41;48.73;;;30.00;;
55134;SDS011;41031;44.750;11.308;2022-11-15T10:56:08;51.73;;;30.00;;
55134;SDS011;41031;44.750;11.308;2022-11-15T10:58:42;48.00;;;30.00;;
55134;SDS011;41031;44.750;11.308;2022-11-15T11:01:20;45.43;;;29.47;;
55134;SDS011;41031;44.750;11.308;2022-11-15T11:04:08;47.63;;;30.77;;
55134;SDS011;41031;44.750;11.308;2022-11-15T11:06:49;50.97;;;32.03;;
55134;SDS011;41031;44.750;11.308;2022-11-15T11:09:23;57.13;;;31.70;;
55134;SDS011;41031;44.750;11.308;2022-11-15T11:11:55;50.13;;;31.13;;
55134;SDS011;41031;44.750;11.308;2022-11-15T11:14:23;47.40;;;30.10;;
55134;SDS011;41031;44.750;11.308;2022-11-15T11:17:09;45.47;;;30.17;;
55134;SDS011;41031;44.750;11.308;2022-11-15T11:28:33;49.10;;;29.77;;
55134;SDS011;41031;44.750;11.308;2022-11-15T11:31:17;54.10;;;30.57;;
55134;SDS011;41031;44.750;11.308;2022-11-15T11:33:51;47.83;;;29.50;;
55134;SDS011;41031;44.750;11.308;2022-11-15T11:48:04;50.00;;;30.80;;
55134;SDS011;41031;44.750;11.308;2022-11-15T11:50:40;47.63;;;30.97;;
55134;SDS011;41031;44.750;11.308;2022-11-15T11:53:11;53.67;;;30.40;;
55134;SDS011;41031;44.750;11.308;2022-11-15T12:00:51;53.47;;;32.13;;
55134;SDS011;41031;44.750;11.308;2022-11-15T12:06:21;51.03;;;30.43;;
55134;SDS011;41031;44.750;11.308;2022-11-15T12:17:14;47.10;;;30.57;;
55134;SDS011;41031;44.750;11.308;2022-11-15T12:19:44;55.90;;;32.93;;
55134;SDS011;41031;44.750;11.308;2022-11-15T12:22:22;46.63;;;30.57;;
55134;SDS011;41031;44.750;11.308;2022-11-15T12:28:06;51.27;;;32.83;;
55134;SDS011;41031;44.750;11.308;2022-11-15T12:30:44;50.40;;;31.97;;
55134;SDS011;41031;44.750;11.308;2022-11-15T12:41:22;51.47;;;32.50;;
55134;SDS011;41031;44.750;11.308;2022-11-15T12:43:51;50.70;;;32.53;;
55134;SDS011;41031;44.750;11.308;2022-11-15T12:48:51;54.30;;;32.13;;
55134;SDS011;41031;44.750;11.308;2022-11-15T12:51:21;46.37;;;30.20;;
55134;SDS011;41031;44.750;11.308;2022-11-15T12:57:35;49.00;;;31.53;;
55134;SDS011;41031;44.750;11.308;2022-11-15T13:02:29;51.83;;;31.87;;
55134;SDS011;41031;44.750;11.308;2022-11-15T13:10:28;50.93;;;31.70;;
55134;SDS011;41031;44.750;11.308;2022-11-15T13:20:59;53.00;;;34.00;;
55134;SDS011;41031;44.750;11.308;2022-11-15T13:23:51;54.87;;;34.00;;
55134;SDS011;41031;44.750;11.308;2022-11-15T13:26:21;55.73;;;32.13;;
55134;SDS011;41031;44.750;11.308;2022-11-15T13:28:49;52.97;;;31.50;;
55134;SDS011;41031;44.750;11.308;2022-11-15T13:33:52;51.57;;;32.17;;
55134;SDS011;41031;44.750;11.308;2022-11-15T13:36:26;60.97;;;34.13;;
55134;SDS011;41031;44.750;11.308;2022-11-15T13:41:32;59.10;;;32.67;;
55134;SDS011;41031;44.750;11.308;2022-11-15T13:44:00;62.23;;;35.73;;
55134;SDS011;41031;44.750;11.308;2022-11-15T13:46:33;56.00;;;33.33;;
55134;SDS011;41031;44.750;11.308;2022-11-15T13:49:01;61.67;;;35.53;;
55134;SDS011;41031;44.750;11.308;2022-11-15T13:54:25;63.60;;;36.23;;
55134;SDS011;41031;44.750;11.308;2022-11-15T13:59:49;63.50;;;36.20;;
55134;SDS011;41031;44.750;11.308;2022-11-15T14:02:40;62.13;;;36.30;;
55134;SDS011;41031;44.750;11.308;2022-11-15T14:05:19;67.43;;;37.97;;
55134;SDS011;41031;44.750;11.308;2022-11-15T14:07:58;61.67;;;36.50;;
55134;SDS011;41031;44.750;11.308;2022-11-15T14:10:32;61.60;;;36.47;;
55134;SDS011;41031;44.750;11.308;2022-11-15T14:13:04;66.83;;;36.10;;
55134;SDS011;41031;44.750;11.308;2022-11-15T14:15:38;63.37;;;35.63;;
55134;SDS011;41031;44.750;11.308;2022-11-15T14:18:06;61.73;;;37.00;;
55134;SDS011;41031;44.750;11.308;2022-11-15T14:20:37;61.33;;;34.73;;
55134;SDS011;41031;44.750;11.308;2022-11-15T14:23:17;62.70;;;35.23;;
55134;SDS011;41031;44.750;11.308;2022-11-15T14:25:54;56.97;;;32.17;;
55134;SDS011;41031;44.750;11.308;2022-11-15T14:30:51;56.17;;;32.93;;
55134;SDS011;41031;44.750;11.308;2022-11-15T14:33:32;52.23;;;30.60;;
55134;SDS011;41031;44.750;11.308;2022-11-15T14:38:37;52.40;;;30.53;;
55134;SDS011;41031;44.750;11.308;2022-11-15T14:41:04;48.77;;;30.73;;
55134;SDS011;41031;44.750;11.308;2022-11-15T14:43:32;50.37;;;30.43;;
55134;SDS011;41031;44.750;11.308;2022-11-15T14:45:59;48.30;;;30.03;;
55134;SDS011;41031;44.750;11.308;2022-11-15T14:48:26;51.10;;;30.70;;
55134;SDS011;41031;44.750;11.308;2022-11-15T14:50:53;57.57;;;31.03;;
55134;SDS011;41031;44.750;11.308;2022-11-15T14:53:20;49.87;;;30.40;;
55134;SDS011;41031;44.750;11.308;2022-11-15T14:55:48;50.57;;;30.90;;
55134;SDS011;41031;44.750;11.308;2022-11-15T14:58:15;52.73;;;31.03;;
55134;SDS011;41031;44.750;11.308;2022-11-15T15:00:46;59.33;;;32.27;;
55134;SDS011;41031;44.750;11.308;2022-11-15T15:03:13;57.30;;;32.80;;
55134;SDS011;41031;44.750;11.308;2022-11-15T15:05:41;57.77;;;33.60;;
55134;SDS011;41031;44.750;11.308;2022-11-15T15:08:09;54.23;;;32.73;;
55134;SDS011;41031;44.750;11.308;2022-11-15T15:10:38;56.13;;;31.73;;
55134;SDS011;41031;44.750;11.308;2022-11-15T15:13:18;53.43;;;31.50;;
55134;SDS011;41031;44.750;11.308;2022-11-15T15:15:50;59.83;;;33.80;;
55134;SDS011;41031;44.750;11.308;2022-11-15T15:18:18;59.00;;;32.73;;
55134;SDS011;41031;44.750;11.308;2022-11-15T15:20:49;61.03;;;34.07;;
55134;SDS011;41031;44.750;11.308;2022-11-15T15:23:33;62.53;;;31.50;;
55134;SDS011;41031;44.750;11.308;2022-11-15T15:26:01;58.83;;;33.87;;
55134;SDS011;41031;44.750;11.308;2022-11-15T15:28:29;58.97;;;31.37;;
55134;SDS011;41031;44.750;11.308;2022-11-15T15:31:00;61.40;;;33.83;;
55134;SDS011;41031;44.750;11.308;2022-11-15T15:33:28;53.90;;;32.43;;
55134;SDS011;41031;44.750;11.308;2022-11-15T15:35:55;57.23;;;33.57;;
55134;SDS011;41031;44.750;11.308;2022-11-15T15:38:22;60.57;;;33.90;;
55134;SDS011;41031;44.750;11.308;2022-11-15T15:40:49;61.73;;;33.07;;
55134;SDS011;41031;44.750;11.308;2022-11-15T15:43:17;61.10;;;33.67;;
55134;SDS011;41031;44.750;11.308;2022-11-15T15:45:44;57.83;;;33.17;;
55134;SDS011;41031;44.750;11.308;2022-11-15T15:48:15;56.00;;;33.03;;
55134;SDS011;41031;44.750;11.308;2022-11-15T15:50:43;58.10;;;33.27;;
55134;SDS011;41031;44.750;11.308;2022-11-15T15:53:10;57.03;;;32.90;;
55134;SDS011;41031;44.750;11.308;2022-11-15T15:55:38;62.77;;;33.37;;
55134;SDS011;41031;44.750;11.308;2022-11-15T15:58:06;60.33;;;34.47;;
55134;SDS011;41031;44.750;11.308;2022-11-15T16:00:34;59.63;;;34.33;;
55134;SDS011;41031;44.750;11.308;2022-11-15T16:03:02;59.90;;;33.87;;
55134;SDS011;41031;44.750;11.308;2022-11-15T16:05:29;55.50;;;31.67;;
55134;SDS011;41031;44.750;11.308;2022-11-15T16:07:56;61.73;;;34.20;;
55134;SDS011;41031;44.750;11.308;2022-11-15T16:10:27;62.87;;;31.17;;
55134;SDS011;41031;44.750;11.308;2022-11-15T16:12:56;60.57;;;32.07;;
55134;SDS011;41031;44.750;11.308;2022-11-15T16:15:24;55.53;;;31.57;;
55134;SDS011;41031;44.750;11.308;2022-11-15T16:17:54;54.00;;;31.83;;
55134;SDS011;41031;44.750;11.308;2022-11-15T16:20:38;54.83;;;32.20;;
55134;SDS011;41031;44.750;11.308;2022-11-15T16:23:09;60.03;;;32.83;;
55134;SDS011;41031;44.750;11.308;2022-11-15T16:25:45;65.93;;;34.97;;
55134;SDS011;41031;44.750;11.308;2022-11-15T16:31:03;60.73;;;34.40;;
55134;SDS011;41031;44.750;11.308;2022-11-15T16:33:35;61.23;;;34.53;;
55134;SDS011;41031;44.750;11.308;2022-11-15T16:36:03;63.97;;;33.57;;
55134;SDS011;41031;44.750;11.308;2022-11-15T16:38:32;60.00;;;33.07;;
55134;SDS011;41031;44.750;11.308;2022-11-15T16:41:00;61.53;;;34.23;;
55134;SDS011;41031;44.750;11.308;2022-11-15T16:43:27;64.53;;;34.07;;
55134;SDS011;41031;44.750;11.308;2022-11-15T16:45:54;68.57;;;35.90;;
55134;SDS011;41031;44.750;11.308;2022-11-15T16:48:22;61.77;;;34.87;;
55134;SDS011;41031;44.750;11.308;2022-11-15T16:50:54;65.10;;;35.63;;
55134;SDS011;41031;44.750;11.308;2022-11-15T16:53:23;66.97;;;35.90;;
55134;SDS011;41031;44.750;11.308;2022-11-15T16:55:51;63.00;;;36.33;;
55134;SDS011;41031;44.750;11.308;2022-11-15T16:58:19;72.93;;;39.57;;
55134;SDS011;41031;44.750;11.308;2022-11-15T17:00:49;67.80;;;36.40;;
55134;SDS011;41031;44.750;11.308;2022-11-15T17:03:21;72.23;;;39.03;;
55134;SDS011;41031;44.750;11.308;2022-11-15T17:05:49;69.47;;;39.63;;
55134;SDS011;41031;44.750;11.308;2022-11-15T17:08:16;65.60;;;35.97;;
55134;SDS011;41031;44.750;11.308;2022-11-15T17:10:46;68.00;;;38.37;;
55134;SDS011;41031;44.750;11.308;2022-11-15T17:13:13;62.90;;;35.83;;
55134;SDS011;41031;44.750;11.308;2022-11-15T17:15:40;69.07;;;36.37;;
55134;SDS011;41031;44.750;11.308;2022-11-15T17:18:11;58.83;;;33.80;;
55134;SDS011;41031;44.750;11.308;2022-11-15T17:20:39;63.60;;;37.27;;
55134;SDS011;41031;44.750;11.308;2022-11-15T17:23:10;61.17;;;34.73;;
55134;SDS011;41031;44.750;11.308;2022-11-15T17:25:40;58.07;;;33.50;;
55134;SDS011;41031;44.750;11.308;2022-11-15T17:28:07;59.47;;;32.67;;
55134;SDS011;41031;44.750;11.308;2022-11-15T17:30:34;62.03;;;34.30;;
55134;SDS011;41031;44.750;11.308;2022-11-15T17:33:01;66.33;;;34.50;;
55134;SDS011;41031;44.750;11.308;2022-11-15T17:35:28;62.80;;;33.23;;
55134;SDS011;41031;44.750;11.308;2022-11-15T17:37:55;62.63;;;32.70;;
55134;SDS011;41031;44.750;11.308;2022-11-15T17:40:22;65.10;;;33.83;;
55134;SDS011;41031;44.750;11.308;2022-11-15T17:42:50;63.47;;;35.40;;
55134;SDS011;41031;44.750;11.308;2022-11-15T17:45:17;64.37;;;33.50;;
55134;SDS011;41031;44.750;11.308;2022-11-15T17:47:44;61.93;;;35.10;;
55134;SDS011;41031;44.750;11.308;2022-11-15T17:50:11;59.30;;;33.20;;
55134;SDS011;41031;44.750;11.308;2022-11-15T17:52:38;64.07;;;34.90;;
55134;SDS011;41031;44.750;11.308;2022-11-15T17:55:05;56.50;;;33.43;;
55134;SDS011;41031;44.750;11.308;2022-11-15T17:57:32;61.83;;;34.47;;
55134;SDS011;41031;44.750;11.308;2022-11-15T17:59:59;61.00;;;33.50;;
55134;SDS011;41031;44.750;11.308;2022-11-15T18:02:29;62.03;;;33.10;;
55134;SDS011;41031;44.750;11.308;2022-11-15T18:04:56;56.30;;;31.83;;